sensor_id;sensor_type;location;lat;lon;timestamp;temperature;humidity
69901;DHT22;57183;50.930;5.406;2023-08-24T00:01:09;19.40;99.90
69901;DHT22;57183;50.930;5.406;2023-08-24T00:03:37;19.40;99.90
69901;DHT22;57183;50.930;5.406;2023-08-24T00:06:03;19.50;99.90
69901;DHT22;57183;50.930;5.406;2023-08-24T00:08:28;19.50;99.90
69901;DHT22;57183;50.930;5.406;2023-08-24T00:10:54;19.50;99.90
69901;DHT22;57183;50.930;5.406;2023-08-24T00:13:20;19.50;99.90
69901;DHT22;57183;50.930;5.406;2023-08-24T00:15:46;19.40;99.90
69901;DHT22;57183;50.930;5.406;2023-08-24T00:18:11;19.40;99.90
69901;DHT22;57183;50.930;5.406;2023-08-24T00:20:37;19.50;99.90
69901;DHT22;57183;50.930;5.406;2023-08-24T00:23:03;19.40;99.90
69901;DHT22;57183;50.930;5.406;2023-08-24T00:25:30;19.20;99.90
69901;DHT22;57183;50.930;5.406;2023-08-24T00:27:55;19.10;99.90
69901;DHT22;57183;50.930;5.406;2023-08-24T00:30:22;19.20;99.90
69901;DHT22;57183;50.930;5.406;2023-08-24T00:32:48;19.10;99.90
69901;DHT22;57183;50.930;5.406;2023-08-24T00:35:14;19.00;99.90
69901;DHT22;57183;50.930;5.406;2023-08-24T00:37:40;19.00;99.90
69901;DHT22;57183;50.930;5.406;2023-08-24T00:40:07;19.10;99.90
69901;DHT22;57183;50.930;5.406;2023-08-24T00:42:44;19.00;99.90
69901;DHT22;57183;50.930;5.406;2023-08-24T00:45:11;19.00;99.90
69901;DHT22;57183;50.930;5.406;2023-08-24T00:47:43;18.90;99.90
69901;DHT22;57183;50.930;5.406;2023-08-24T00:50:10;18.90;99.90
69901;DHT22;57183;50.930;5.406;2023-08-24T00:52:37;18.90;99.90
69901;DHT22;57183;50.930;5.406;2023-08-24T00:55:05;18.80;99.90
69901;DHT22;57183;50.930;5.406;2023-08-24T00:57:32;18.80;99.90
69901;DHT22;57183;50.930;5.406;2023-08-24T00:59:59;18.90;99.90
69901;DHT22;57183;50.930;5.406;2023-08-24T01:02:27;18.90;99.90
69901;DHT22;57183;50.930;5.406;2023-08-24T01:04:53;18.90;99.90
69901;DHT22;57183;50.930;5.406;2023-08-24T01:07:19;18.90;99.90
69901;DHT22;57183;50.930;5.406;2023-08-24T01:09:45;18.90;99.90
69901;DHT22;57183;50.930;5.406;2023-08-24T01:12:28;18.80;99.90
69901;DHT22;57183;50.930;5.406;2023-08-24T01:15:13;18.90;99.90
69901;DHT22;57183;50.930;5.406;2023-08-24T01:17:42;18.90;99.90
69901;DHT22;57183;50.930;5.406;2023-08-24T01:20:08;18.80;99.90
69901;DHT22;57183;50.930;5.406;2023-08-24T01:28:13;18.90;99.90
69901;DHT22;57183;50.930;5.406;2023-08-24T01:30:40;19.00;99.90
69901;DHT22;57183;50.930;5.406;2023-08-24T01:33:05;19.10;99.90
69901;DHT22;57183;50.930;5.406;2023-08-24T01:35:37;19.10;99.90
69901;DHT22;57183;50.930;5.406;2023-08-24T01:38:04;19.10;99.90
69901;DHT22;57183;50.930;5.406;2023-08-24T01:40:53;19.00;99.90
69901;DHT22;57183;50.930;5.406;2023-08-24T01:43:21;18.90;99.90
69901;DHT22;57183;50.930;5.406;2023-08-24T01:45:52;18.80;99.90
69901;DHT22;57183;50.930;5.406;2023-08-24T01:48:19;18.80;99.90
69901;DHT22;57183;50.930;5.406;2023-08-24T01:50:46;18.70;99.90
69901;DHT22;57183;50.930;5.406;2023-08-24T01:53:12;18.70;99.90
69901;DHT22;57183;50.930;5.406;2023-08-24T01:55:38;18.90;99.90
69901;DHT22;57183;50.930;5.406;2023-08-24T01:58:04;19.00;99.90
69901;DHT22;57183;50.930;5.406;2023-08-24T02:00:29;19.10;99.90
69901;DHT22;57183;50.930;5.406;2023-08-24T02:02:55;19.10;99.90
69901;DHT22;57183;50.930;5.406;2023-08-24T02:05:21;19.10;99.90
69901;DHT22;57183;50.930;5.406;2023-08-24T02:07:46;19.10;99.90
69901;DHT22;57183;50.930;5.406;2023-08-24T02:10:12;19.10;99.90
69901;DHT22;57183;50.930;5.406;2023-08-24T02:12:38;19.20;99.90
69901;DHT22;57183;50.930;5.406;2023-08-24T02:15:04;19.30;99.90
69901;DHT22;57183;50.930;5.406;2023-08-24T02:17:29;19.30;99.90
69901;DHT22;57183;50.930;5.406;2023-08-24T02:19:55;19.30;99.90
69901;DHT22;57183;50.930;5.406;2023-08-24T02:22:21;19.30;99.90
69901;DHT22;57183;50.930;5.406;2023-08-24T02:24:47;19.30;99.90
69901;DHT22;57183;50.930;5.406;2023-08-24T02:27:12;19.20;99.90
69901;DHT22;57183;50.930;5.406;2023-08-24T02:29:38;19.20;99.90
69901;DHT22;57183;50.930;5.406;2023-08-24T02:32:04;19.40;99.90
69901;DHT22;57183;50.930;5.406;2023-08-24T02:34:30;19.40;99.90
69901;DHT22;57183;50.930;5.406;2023-08-24T02:36:57;19.40;99.90
69901;DHT22;57183;50.930;5.406;2023-08-24T02:39:22;19.50;99.90
69901;DHT22;57183;50.930;5.406;2023-08-24T02:41:49;19.50;99.90
69901;DHT22;57183;50.930;5.406;2023-08-24T02:44:14;19.40;99.90
69901;DHT22;57183;50.930;5.406;2023-08-24T02:46:40;19.30;99.90
69901;DHT22;57183;50.930;5.406;2023-08-24T02:49:05;19.20;99.90
69901;DHT22;57183;50.930;5.406;2023-08-24T02:51:31;19.20;99.90
69901;DHT22;57183;50.930;5.406;2023-08-24T02:53:57;19.20;99.90
69901;DHT22;57183;50.930;5.406;2023-08-24T02:56:23;19.30;99.90
69901;DHT22;57183;50.930;5.406;2023-08-24T02:58:49;19.30;99.90
69901;DHT22;57183;50.930;5.406;2023-08-24T03:01:15;19.30;99.90
69901;DHT22;57183;50.930;5.406;2023-08-24T03:03:40;19.30;99.90
69901;DHT22;57183;50.930;5.406;2023-08-24T03:06:07;19.40;99.90
69901;DHT22;57183;50.930;5.406;2023-08-24T03:08:33;19.50;99.90
69901;DHT22;57183;50.930;5.406;2023-08-24T03:11:00;19.40;99.90
69901;DHT22;57183;50.930;5.406;2023-08-24T03:13:27;19.40;99.90
69901;DHT22;57183;50.930;5.406;2023-08-24T03:15:53;19.50;99.90
69901;DHT22;57183;50.930;5.406;2023-08-24T03:18:19;19.40;99.90
69901;DHT22;57183;50.930;5.406;2023-08-24T03:20:46;19.20;99.90
69901;DHT22;57183;50.930;5.406;2023-08-24T03:23:12;19.10;99.90
69901;DHT22;57183;50.930;5.406;2023-08-24T03:25:39;19.10;99.90
69901;DHT22;57183;50.930;5.406;2023-08-24T03:28:06;19.10;99.90
69901;DHT22;57183;50.930;5.406;2023-08-24T03:30:34;18.90;99.90
69901;DHT22;57183;50.930;5.406;2023-08-24T03:33:00;18.80;99.90
69901;DHT22;57183;50.930;5.406;2023-08-24T03:35:26;18.70;99.90
69901;DHT22;57183;50.930;5.406;2023-08-24T03:37:52;18.60;99.90
69901;DHT22;57183;50.930;5.406;2023-08-24T03:40:17;18.60;99.90
69901;DHT22;57183;50.930;5.406;2023-08-24T03:42:43;18.70;99.90
69901;DHT22;57183;50.930;5.406;2023-08-24T03:45:09;18.80;99.90
69901;DHT22;57183;50.930;5.406;2023-08-24T03:47:35;18.80;99.90
69901;DHT22;57183;50.930;5.406;2023-08-24T03:50:00;18.80;99.90
69901;DHT22;57183;50.930;5.406;2023-08-24T03:52:26;18.80;99.90
69901;DHT22;57183;50.930;5.406;2023-08-24T03:54:52;18.80;99.90
69901;DHT22;57183;50.930;5.406;2023-08-24T03:57:18;18.70;99.90
69901;DHT22;57183;50.930;5.406;2023-08-24T03:59:43;18.70;99.90
69901;DHT22;57183;50.930;5.406;2023-08-24T04:02:09;18.90;99.90
69901;DHT22;57183;50.930;5.406;2023-08-24T04:04:34;18.90;99.90
69901;DHT22;57183;50.930;5.406;2023-08-24T04:07:01;18.90;99.90
69901;DHT22;57183;50.930;5.406;2023-08-24T04:09:28;18.90;99.90
69901;DHT22;57183;50.930;5.406;2023-08-24T04:11:53;18.80;99.90
69901;DHT22;57183;50.930;5.406;2023-08-24T04:14:19;18.70;99.90
69901;DHT22;57183;50.930;5.406;2023-08-24T04:16:44;18.70;99.90
69901;DHT22;57183;50.930;5.406;2023-08-24T04:19:10;18.80;99.90
69901;DHT22;57183;50.930;5.406;2023-08-24T04:21:36;18.70;99.90
69901;DHT22;57183;50.930;5.406;2023-08-24T04:24:01;18.70;99.90
69901;DHT22;57183;50.930;5.406;2023-08-24T04:26:27;18.70;99.90
69901;DHT22;57183;50.930;5.406;2023-08-24T04:28:53;18.70;99.90
69901;DHT22;57183;50.930;5.406;2023-08-24T04:31:19;18.70;99.90
69901;DHT22;57183;50.930;5.406;2023-08-24T04:33:44;18.60;99.90
69901;DHT22;57183;50.930;5.406;2023-08-24T04:36:10;18.70;99.90
69901;DHT22;57183;50.930;5.406;2023-08-24T04:38:35;18.60;99.90
69901;DHT22;57183;50.930;5.406;2023-08-24T04:41:02;18.60;99.90
69901;DHT22;57183;50.930;5.406;2023-08-24T04:43:32;18.80;99.90
69901;DHT22;57183;50.930;5.406;2023-08-24T04:45:58;18.90;99.90
69901;DHT22;57183;50.930;5.406;2023-08-24T04:48:25;19.10;99.90
69901;DHT22;57183;50.930;5.406;2023-08-24T04:50:58;19.20;99.90
69901;DHT22;57183;50.930;5.406;2023-08-24T04:53:25;19.20;99.90
69901;DHT22;57183;50.930;5.406;2023-08-24T04:55:51;19.00;99.90
69901;DHT22;57183;50.930;5.406;2023-08-24T04:58:17;18.80;99.90
69901;DHT22;57183;50.930;5.406;2023-08-24T05:00:42;18.60;99.90
69901;DHT22;57183;50.930;5.406;2023-08-24T05:03:08;18.50;99.90
69901;DHT22;57183;50.930;5.406;2023-08-24T05:05:35;18.40;99.90
69901;DHT22;57183;50.930;5.406;2023-08-24T05:08:02;18.40;99.90
69901;DHT22;57183;50.930;5.406;2023-08-24T05:10:32;18.30;99.90
69901;DHT22;57183;50.930;5.406;2023-08-24T05:12:58;18.40;99.90
69901;DHT22;57183;50.930;5.406;2023-08-24T05:15:23;18.30;99.90
69901;DHT22;57183;50.930;5.406;2023-08-24T05:17:49;18.40;99.90
69901;DHT22;57183;50.930;5.406;2023-08-24T05:20:16;18.40;99.90
69901;DHT22;57183;50.930;5.406;2023-08-24T05:22:42;18.50;99.90
69901;DHT22;57183;50.930;5.406;2023-08-24T05:25:08;18.40;99.90
69901;DHT22;57183;50.930;5.406;2023-08-24T05:27:33;18.40;99.90
69901;DHT22;57183;50.930;5.406;2023-08-24T05:29:59;18.50;99.90
69901;DHT22;57183;50.930;5.406;2023-08-24T05:32:25;18.60;99.90
69901;DHT22;57183;50.930;5.406;2023-08-24T05:34:50;18.50;99.90
69901;DHT22;57183;50.930;5.406;2023-08-24T05:37:16;18.50;99.90
69901;DHT22;57183;50.930;5.406;2023-08-24T05:39:42;18.50;99.90
69901;DHT22;57183;50.930;5.406;2023-08-24T05:42:09;18.50;99.90
69901;DHT22;57183;50.930;5.406;2023-08-24T05:44:35;18.50;99.90
69901;DHT22;57183;50.930;5.406;2023-08-24T05:47:00;18.50;99.90
69901;DHT22;57183;50.930;5.406;2023-08-24T05:49:26;18.60;99.90
69901;DHT22;57183;50.930;5.406;2023-08-24T05:51:52;18.60;99.90
69901;DHT22;57183;50.930;5.406;2023-08-24T05:54:18;18.60;99.90
69901;DHT22;57183;50.930;5.406;2023-08-24T05:56:47;18.80;99.90
69901;DHT22;57183;50.930;5.406;2023-08-24T05:59:14;19.10;99.90
69901;DHT22;57183;50.930;5.406;2023-08-24T06:01:40;19.30;99.90
69901;DHT22;57183;50.930;5.406;2023-08-24T06:04:09;19.50;99.90
69901;DHT22;57183;50.930;5.406;2023-08-24T06:06:35;19.70;99.90
69901;DHT22;57183;50.930;5.406;2023-08-24T06:09:02;19.90;99.90
69901;DHT22;57183;50.930;5.406;2023-08-24T06:11:31;20.00;99.90
69901;DHT22;57183;50.930;5.406;2023-08-24T06:13:57;20.00;99.90
69901;DHT22;57183;50.930;5.406;2023-08-24T06:16:23;20.20;99.90
69901;DHT22;57183;50.930;5.406;2023-08-24T06:18:48;20.20;99.90
69901;DHT22;57183;50.930;5.406;2023-08-24T06:21:15;20.30;99.90
69901;DHT22;57183;50.930;5.406;2023-08-24T06:23:41;20.40;99.90
69901;DHT22;57183;50.930;5.406;2023-08-24T06:26:07;20.50;99.90
69901;DHT22;57183;50.930;5.406;2023-08-24T06:28:33;20.50;99.90
69901;DHT22;57183;50.930;5.406;2023-08-24T06:31:00;20.60;99.90
69901;DHT22;57183;50.930;5.406;2023-08-24T06:33:35;20.70;99.90
69901;DHT22;57183;50.930;5.406;2023-08-24T06:36:03;20.80;99.90
69901;DHT22;57183;50.930;5.406;2023-08-24T06:38:31;21.00;99.90
69901;DHT22;57183;50.930;5.406;2023-08-24T06:40:58;21.10;99.90
69901;DHT22;57183;50.930;5.406;2023-08-24T06:43:25;21.20;99.90
69901;DHT22;57183;50.930;5.406;2023-08-24T06:45:51;21.40;99.90
69901;DHT22;57183;50.930;5.406;2023-08-24T06:48:16;21.50;99.90
69901;DHT22;57183;50.930;5.406;2023-08-24T06:50:43;21.60;99.90
69901;DHT22;57183;50.930;5.406;2023-08-24T06:53:09;21.60;99.90
69901;DHT22;57183;50.930;5.406;2023-08-24T06:55:34;21.80;99.90
69901;DHT22;57183;50.930;5.406;2023-08-24T06:58:00;21.90;99.90
69901;DHT22;57183;50.930;5.406;2023-08-24T07:00:26;22.10;99.90
69901;DHT22;57183;50.930;5.406;2023-08-24T07:02:51;22.30;99.90
69901;DHT22;57183;50.930;5.406;2023-08-24T07:05:17;22.50;99.90
69901;DHT22;57183;50.930;5.406;2023-08-24T07:07:52;22.70;99.90
69901;DHT22;57183;50.930;5.406;2023-08-24T07:10:19;22.80;99.90
69901;DHT22;57183;50.930;5.406;2023-08-24T07:12:45;22.90;99.90
69901;DHT22;57183;50.930;5.406;2023-08-24T07:15:11;23.10;99.90
69901;DHT22;57183;50.930;5.406;2023-08-24T07:17:37;23.20;99.90
69901;DHT22;57183;50.930;5.406;2023-08-24T07:20:04;23.20;99.90
69901;DHT22;57183;50.930;5.406;2023-08-24T07:22:49;23.30;99.90
69901;DHT22;57183;50.930;5.406;2023-08-24T07:25:16;23.50;99.90
69901;DHT22;57183;50.930;5.406;2023-08-24T07:27:42;23.60;99.90
69901;DHT22;57183;50.930;5.406;2023-08-24T07:30:08;23.60;99.90
69901;DHT22;57183;50.930;5.406;2023-08-24T07:32:36;23.70;99.90
69901;DHT22;57183;50.930;5.406;2023-08-24T07:35:01;23.90;99.90
69901;DHT22;57183;50.930;5.406;2023-08-24T07:37:27;24.00;99.90
69901;DHT22;57183;50.930;5.406;2023-08-24T07:39:53;24.10;99.90
69901;DHT22;57183;50.930;5.406;2023-08-24T07:42:20;24.10;99.90
69901;DHT22;57183;50.930;5.406;2023-08-24T07:44:47;24.40;99.90
69901;DHT22;57183;50.930;5.406;2023-08-24T07:47:12;24.50;99.90
69901;DHT22;57183;50.930;5.406;2023-08-24T07:49:38;24.70;99.90
69901;DHT22;57183;50.930;5.406;2023-08-24T07:52:09;24.80;99.90
69901;DHT22;57183;50.930;5.406;2023-08-24T07:54:34;25.00;99.90
69901;DHT22;57183;50.930;5.406;2023-08-24T07:57:01;25.30;99.90
69901;DHT22;57183;50.930;5.406;2023-08-24T07:59:26;25.30;99.90
69901;DHT22;57183;50.930;5.406;2023-08-24T08:01:52;25.70;99.90
69901;DHT22;57183;50.930;5.406;2023-08-24T08:04:17;25.80;99.90
69901;DHT22;57183;50.930;5.406;2023-08-24T08:06:43;25.90;99.90
69901;DHT22;57183;50.930;5.406;2023-08-24T08:09:09;25.90;99.90
69901;DHT22;57183;50.930;5.406;2023-08-24T08:11:34;25.90;99.90
69901;DHT22;57183;50.930;5.406;2023-08-24T08:14:00;26.10;99.90
69901;DHT22;57183;50.930;5.406;2023-08-24T08:16:26;26.20;99.90
69901;DHT22;57183;50.930;5.406;2023-08-24T08:18:51;26.30;99.90
69901;DHT22;57183;50.930;5.406;2023-08-24T08:21:17;26.40;99.90
69901;DHT22;57183;50.930;5.406;2023-08-24T08:23:44;26.50;99.90
69901;DHT22;57183;50.930;5.406;2023-08-24T08:26:12;26.60;99.90
69901;DHT22;57183;50.930;5.406;2023-08-24T08:28:39;26.70;99.90
69901;DHT22;57183;50.930;5.406;2023-08-24T08:31:05;26.70;99.90
69901;DHT22;57183;50.930;5.406;2023-08-24T08:33:31;26.80;99.90
69901;DHT22;57183;50.930;5.406;2023-08-24T08:35:57;26.70;99.90
69901;DHT22;57183;50.930;5.406;2023-08-24T08:38:22;26.90;99.90
69901;DHT22;57183;50.930;5.406;2023-08-24T08:40:53;26.90;99.90
69901;DHT22;57183;50.930;5.406;2023-08-24T08:43:21;26.90;99.90
69901;DHT22;57183;50.930;5.406;2023-08-24T08:45:51;27.00;99.90
69901;DHT22;57183;50.930;5.406;2023-08-24T08:48:18;26.80;99.90
69901;DHT22;57183;50.930;5.406;2023-08-24T08:50:50;26.80;99.90
69901;DHT22;57183;50.930;5.406;2023-08-24T08:53:16;27.00;99.90
69901;DHT22;57183;50.930;5.406;2023-08-24T08:55:43;27.10;99.90
69901;DHT22;57183;50.930;5.406;2023-08-24T08:58:10;27.20;99.90
69901;DHT22;57183;50.930;5.406;2023-08-24T09:00:37;27.20;99.90
69901;DHT22;57183;50.930;5.406;2023-08-24T09:03:03;27.30;99.90
69901;DHT22;57183;50.930;5.406;2023-08-24T09:05:30;27.40;99.90
69901;DHT22;57183;50.930;5.406;2023-08-24T09:07:57;27.60;99.90
69901;DHT22;57183;50.930;5.406;2023-08-24T09:10:24;27.60;99.90
69901;DHT22;57183;50.930;5.406;2023-08-24T09:12:50;27.60;99.90
69901;DHT22;57183;50.930;5.406;2023-08-24T09:15:24;27.70;99.90
69901;DHT22;57183;50.930;5.406;2023-08-24T09:17:51;27.90;99.90
69901;DHT22;57183;50.930;5.406;2023-08-24T09:20:17;27.90;99.90
69901;DHT22;57183;50.930;5.406;2023-08-24T09:22:43;28.10;99.90
69901;DHT22;57183;50.930;5.406;2023-08-24T09:25:10;28.20;99.90
69901;DHT22;57183;50.930;5.406;2023-08-24T09:27:36;28.20;99.90
69901;DHT22;57183;50.930;5.406;2023-08-24T09:30:02;28.20;99.90
69901;DHT22;57183;50.930;5.406;2023-08-24T09:32:29;28.40;99.90
69901;DHT22;57183;50.930;5.406;2023-08-24T09:34:55;28.20;99.90
69901;DHT22;57183;50.930;5.406;2023-08-24T09:37:21;28.10;99.90
69901;DHT22;57183;50.930;5.406;2023-08-24T09:39:47;28.00;99.90
69901;DHT22;57183;50.930;5.406;2023-08-24T09:42:13;27.90;99.90
69901;DHT22;57183;50.930;5.406;2023-08-24T09:44:44;27.90;99.90
69901;DHT22;57183;50.930;5.406;2023-08-24T09:47:12;28.00;99.90
69901;DHT22;57183;50.930;5.406;2023-08-24T09:49:38;28.10;99.90
69901;DHT22;57183;50.930;5.406;2023-08-24T09:52:07;28.10;99.90
69901;DHT22;57183;50.930;5.406;2023-08-24T09:54:37;28.10;99.90
69901;DHT22;57183;50.930;5.406;2023-08-24T09:57:05;28.00;99.90
69901;DHT22;57183;50.930;5.406;2023-08-24T09:59:34;27.90;99.90
69901;DHT22;57183;50.930;5.406;2023-08-24T10:02:00;27.90;99.90
69901;DHT22;57183;50.930;5.406;2023-08-24T10:04:34;27.80;99.90
69901;DHT22;57183;50.930;5.406;2023-08-24T10:07:08;27.70;99.90
69901;DHT22;57183;50.930;5.406;2023-08-24T10:09:45;27.80;99.90
69901;DHT22;57183;50.930;5.406;2023-08-24T10:12:13;27.60;99.90
69901;DHT22;57183;50.930;5.406;2023-08-24T10:15:01;27.60;99.90
69901;DHT22;57183;50.930;5.406;2023-08-24T10:17:32;27.40;99.90
69901;DHT22;57183;50.930;5.406;2023-08-24T10:20:01;27.10;99.90
69901;DHT22;57183;50.930;5.406;2023-08-24T10:22:29;26.70;99.90
69901;DHT22;57183;50.930;5.406;2023-08-24T10:24:55;26.30;99.90
69901;DHT22;57183;50.930;5.406;2023-08-24T10:27:22;25.70;99.90
69901;DHT22;57183;50.930;5.406;2023-08-24T10:29:49;25.30;99.90
69901;DHT22;57183;50.930;5.406;2023-08-24T10:32:15;24.90;99.90
69901;DHT22;57183;50.930;5.406;2023-08-24T10:34:42;24.40;99.90
69901;DHT22;57183;50.930;5.406;2023-08-24T10:37:09;24.10;99.90
69901;DHT22;57183;50.930;5.406;2023-08-24T10:39:47;23.60;99.90
69901;DHT22;57183;50.930;5.406;2023-08-24T10:42:14;23.40;99.90
69901;DHT22;57183;50.930;5.406;2023-08-24T10:44:43;23.20;99.90
69901;DHT22;57183;50.930;5.406;2023-08-24T10:47:14;23.10;99.90
69901;DHT22;57183;50.930;5.406;2023-08-24T10:49:41;23.00;99.90
69901;DHT22;57183;50.930;5.406;2023-08-24T10:52:21;23.00;99.90
69901;DHT22;57183;50.930;5.406;2023-08-24T10:54:51;23.00;99.90
69901;DHT22;57183;50.930;5.406;2023-08-24T10:57:34;22.80;99.90
69901;DHT22;57183;50.930;5.406;2023-08-24T11:00:10;22.80;99.90
69901;DHT22;57183;50.930;5.406;2023-08-24T11:02:46;22.60;99.90
69901;DHT22;57183;50.930;5.406;2023-08-24T11:05:29;22.50;99.90
69901;DHT22;57183;50.930;5.406;2023-08-24T11:08:00;22.50;99.90
69901;DHT22;57183;50.930;5.406;2023-08-24T11:10:46;22.50;99.90
69901;DHT22;57183;50.930;5.406;2023-08-24T11:15:47;22.40;99.90
69901;DHT22;57183;50.930;5.406;2023-08-24T11:21:04;22.50;99.90
69901;DHT22;57183;50.930;5.406;2023-08-24T11:23:30;22.50;99.90
69901;DHT22;57183;50.930;5.406;2023-08-24T11:25:58;22.40;99.90
69901;DHT22;57183;50.930;5.406;2023-08-24T11:28:29;22.60;99.90
69901;DHT22;57183;50.930;5.406;2023-08-24T11:30:57;22.70;99.90
69901;DHT22;57183;50.930;5.406;2023-08-24T11:33:33;22.80;99.90
69901;DHT22;57183;50.930;5.406;2023-08-24T11:36:00;22.90;99.90
69901;DHT22;57183;50.930;5.406;2023-08-24T11:38:36;22.90;99.90
69901;DHT22;57183;50.930;5.406;2023-08-24T11:41:13;22.90;99.90
69901;DHT22;57183;50.930;5.406;2023-08-24T11:43:40;22.90;99.90
69901;DHT22;57183;50.930;5.406;2023-08-24T11:46:06;22.90;99.90
69901;DHT22;57183;50.930;5.406;2023-08-24T11:48:31;23.10;99.90
69901;DHT22;57183;50.930;5.406;2023-08-24T11:50:58;23.20;99.90
69901;DHT22;57183;50.930;5.406;2023-08-24T11:53:24;23.30;99.90
69901;DHT22;57183;50.930;5.406;2023-08-24T11:55:52;23.50;99.90
69901;DHT22;57183;50.930;5.406;2023-08-24T11:58:18;23.60;99.90
69901;DHT22;57183;50.930;5.406;2023-08-24T12:00:45;23.70;99.90
69901;DHT22;57183;50.930;5.406;2023-08-24T12:03:12;23.80;99.90
69901;DHT22;57183;50.930;5.406;2023-08-24T12:05:37;23.90;99.90
69901;DHT22;57183;50.930;5.406;2023-08-24T12:08:05;24.10;99.90
69901;DHT22;57183;50.930;5.406;2023-08-24T12:10:32;24.40;99.90
69901;DHT22;57183;50.930;5.406;2023-08-24T12:13:05;24.70;99.90
69901;DHT22;57183;50.930;5.406;2023-08-24T12:15:34;24.90;99.90
69901;DHT22;57183;50.930;5.406;2023-08-24T12:18:11;25.00;99.90
69901;DHT22;57183;50.930;5.406;2023-08-24T12:20:37;25.00;99.90
69901;DHT22;57183;50.930;5.406;2023-08-24T12:23:03;25.00;99.90
69901;DHT22;57183;50.930;5.406;2023-08-24T12:25:28;25.00;99.90
69901;DHT22;57183;50.930;5.406;2023-08-24T12:28:14;24.90;99.90
69901;DHT22;57183;50.930;5.406;2023-08-24T12:30:51;24.70;99.90
69901;DHT22;57183;50.930;5.406;2023-08-24T12:33:25;24.50;99.90
69901;DHT22;57183;50.930;5.406;2023-08-24T12:35:52;24.40;99.90
69901;DHT22;57183;50.930;5.406;2023-08-24T12:38:18;24.30;99.90
69901;DHT22;57183;50.930;5.406;2023-08-24T12:40:43;24.30;99.90
69901;DHT22;57183;50.930;5.406;2023-08-24T12:43:09;24.30;99.90
69901;DHT22;57183;50.930;5.406;2023-08-24T12:45:35;24.20;99.90
69901;DHT22;57183;50.930;5.406;2023-08-24T12:48:03;24.10;99.90
69901;DHT22;57183;50.930;5.406;2023-08-24T12:50:29;23.80;99.90
69901;DHT22;57183;50.930;5.406;2023-08-24T12:52:55;23.70;99.90
69901;DHT22;57183;50.930;5.406;2023-08-24T12:55:25;23.60;99.90
69901;DHT22;57183;50.930;5.406;2023-08-24T12:57:50;23.50;99.90
69901;DHT22;57183;50.930;5.406;2023-08-24T13:00:16;23.40;99.90
69901;DHT22;57183;50.930;5.406;2023-08-24T13:02:41;23.40;99.90
69901;DHT22;57183;50.930;5.406;2023-08-24T13:05:07;23.40;99.90
69901;DHT22;57183;50.930;5.406;2023-08-24T13:07:33;23.40;99.90
69901;DHT22;57183;50.930;5.406;2023-08-24T13:09:59;23.20;99.90
69901;DHT22;57183;50.930;5.406;2023-08-24T13:12:25;23.00;99.90
69901;DHT22;57183;50.930;5.406;2023-08-24T13:14:51;23.00;99.90
69901;DHT22;57183;50.930;5.406;2023-08-24T13:17:17;22.90;99.90
69901;DHT22;57183;50.930;5.406;2023-08-24T13:19:42;22.80;99.90
69901;DHT22;57183;50.930;5.406;2023-08-24T13:22:08;22.80;99.90
69901;DHT22;57183;50.930;5.406;2023-08-24T13:24:34;22.70;99.90
69901;DHT22;57183;50.930;5.406;2023-08-24T13:27:00;22.60;99.90
69901;DHT22;57183;50.930;5.406;2023-08-24T13:29:25;22.60;99.90
69901;DHT22;57183;50.930;5.406;2023-08-24T13:31:51;22.50;99.90
69901;DHT22;57183;50.930;5.406;2023-08-24T13:34:17;22.40;99.90
69901;DHT22;57183;50.930;5.406;2023-08-24T13:36:44;22.40;99.90
69901;DHT22;57183;50.930;5.406;2023-08-24T13:39:10;22.10;99.90
69901;DHT22;57183;50.930;5.406;2023-08-24T13:41:36;21.90;99.90
69901;DHT22;57183;50.930;5.406;2023-08-24T13:44:02;21.90;99.90
69901;DHT22;57183;50.930;5.406;2023-08-24T13:46:28;21.70;99.90
69901;DHT22;57183;50.930;5.406;2023-08-24T13:48:54;21.70;99.90
69901;DHT22;57183;50.930;5.406;2023-08-24T13:51:19;21.60;99.90
69901;DHT22;57183;50.930;5.406;2023-08-24T13:53:45;21.60;99.90
69901;DHT22;57183;50.930;5.406;2023-08-24T13:56:10;21.60;99.90
69901;DHT22;57183;50.930;5.406;2023-08-24T13:58:36;21.40;99.90
69901;DHT22;57183;50.930;5.406;2023-08-24T14:01:02;21.30;99.90
69901;DHT22;57183;50.930;5.406;2023-08-24T14:03:28;21.30;99.90
69901;DHT22;57183;50.930;5.406;2023-08-24T14:05:55;21.20;99.90
69901;DHT22;57183;50.930;5.406;2023-08-24T14:08:23;21.10;99.90
69901;DHT22;57183;50.930;5.406;2023-08-24T14:10:48;21.10;99.90
69901;DHT22;57183;50.930;5.406;2023-08-24T14:13:15;21.10;99.90
69901;DHT22;57183;50.930;5.406;2023-08-24T14:15:41;21.00;99.90
69901;DHT22;57183;50.930;5.406;2023-08-24T14:18:06;20.90;99.90
69901;DHT22;57183;50.930;5.406;2023-08-24T14:20:33;20.90;99.90
69901;DHT22;57183;50.930;5.406;2023-08-24T14:22:59;20.80;99.90
69901;DHT22;57183;50.930;5.406;2023-08-24T14:25:24;20.80;99.90
69901;DHT22;57183;50.930;5.406;2023-08-24T14:27:50;20.70;99.90
69901;DHT22;57183;50.930;5.406;2023-08-24T14:30:16;20.70;99.90
69901;DHT22;57183;50.930;5.406;2023-08-24T14:32:41;20.70;99.90
69901;DHT22;57183;50.930;5.406;2023-08-24T14:35:08;20.70;99.90
69901;DHT22;57183;50.930;5.406;2023-08-24T14:37:34;20.80;99.90
69901;DHT22;57183;50.930;5.406;2023-08-24T14:39:59;20.70;99.90
69901;DHT22;57183;50.930;5.406;2023-08-24T14:42:25;20.70;99.90
69901;DHT22;57183;50.930;5.406;2023-08-24T14:44:50;20.70;99.90
69901;DHT22;57183;50.930;5.406;2023-08-24T14:47:16;20.70;99.90
69901;DHT22;57183;50.930;5.406;2023-08-24T14:49:42;20.70;99.90
69901;DHT22;57183;50.930;5.406;2023-08-24T14:52:07;20.70;99.90
69901;DHT22;57183;50.930;5.406;2023-08-24T14:54:33;20.70;99.90
69901;DHT22;57183;50.930;5.406;2023-08-24T14:56:59;20.80;99.90
69901;DHT22;57183;50.930;5.406;2023-08-24T14:59:25;20.80;99.90
69901;DHT22;57183;50.930;5.406;2023-08-24T15:01:51;20.80;99.90
69901;DHT22;57183;50.930;5.406;2023-08-24T15:04:18;20.90;99.90
69901;DHT22;57183;50.930;5.406;2023-08-24T15:06:44;20.90;99.90
69901;DHT22;57183;50.930;5.406;2023-08-24T15:09:09;20.90;99.90
69901;DHT22;57183;50.930;5.406;2023-08-24T15:11:36;21.00;99.90
69901;DHT22;57183;50.930;5.406;2023-08-24T15:14:02;21.10;99.90
69901;DHT22;57183;50.930;5.406;2023-08-24T15:16:27;21.20;99.90
69901;DHT22;57183;50.930;5.406;2023-08-24T15:18:53;21.30;99.90
69901;DHT22;57183;50.930;5.406;2023-08-24T15:21:19;21.30;99.90
69901;DHT22;57183;50.930;5.406;2023-08-24T15:23:44;21.40;99.90
69901;DHT22;57183;50.930;5.406;2023-08-24T15:26:10;21.50;99.90
69901;DHT22;57183;50.930;5.406;2023-08-24T15:28:37;21.50;99.90
69901;DHT22;57183;50.930;5.406;2023-08-24T15:31:22;21.60;99.90
69901;DHT22;57183;50.930;5.406;2023-08-24T15:33:48;21.80;99.90
69901;DHT22;57183;50.930;5.406;2023-08-24T15:36:14;21.90;99.90
69901;DHT22;57183;50.930;5.406;2023-08-24T15:38:39;22.00;99.90
69901;DHT22;57183;50.930;5.406;2023-08-24T15:41:05;22.30;99.90